sensor_id;sensor_type;location;lat;lon;timestamp;pressure;altitude;pressure_sealevel;temperature;humidity
59767;BME280;46248;58.364;25.582;2022-07-22T00:00:29;100870.44;;;17.63;71.69
59767;BME280;46248;58.364;25.582;2022-07-22T00:03:51;100873.72;;;17.67;74.26
59767;BME280;46248;58.364;25.582;2022-07-22T00:07:14;100876.59;;;17.64;75.61
59767;BME280;46248;58.364;25.582;2022-07-22T00:10:35;100883.06;;;17.60;75.13
59767;BME280;46248;58.364;25.582;2022-07-22T00:13:57;100850.38;;;17.37;74.03
59767;BME280;46248;58.364;25.582;2022-07-22T00:17:21;100874.75;;;17.53;74.17
59767;BME280;46248;58.364;25.582;2022-07-22T00:20:43;100879.53;;;17.48;76.46
59767;BME280;46248;58.364;25.582;2022-07-22T00:24:05;100846.00;;;17.25;78.01
59767;BME280;46248;58.364;25.582;2022-07-22T00:27:27;100872.72;;;17.33;79.00
59767;BME280;46248;58.364;25.582;2022-07-22T00:30:49;100860.63;;;17.17;79.10
59767;BME280;46248;58.364;25.582;2022-07-22T00:34:14;100861.22;;;17.21;79.05
59767;BME280;46248;58.364;25.582;2022-07-22T00:37:36;100867.50;;;17.20;78.00
59767;BME280;46248;58.364;25.582;2022-07-22T00:40:58;100870.25;;;17.18;77.24
59767;BME280;46248;58.364;25.582;2022-07-22T00:44:20;100872.41;;;17.13;76.93
59767;BME280;46248;58.364;25.582;2022-07-22T00:47:43;100875.13;;;17.12;76.23
59767;BME280;46248;58.364;25.582;2022-07-22T00:51:06;100876.19;;;17.09;76.54
59767;BME280;46248;58.364;25.582;2022-07-22T00:54:28;100876.44;;;17.06;76.48
59767;BME280;46248;58.364;25.582;2022-07-22T00:57:50;100864.97;;;16.94;75.72
59767;BME280;46248;58.364;25.582;2022-07-22T01:01:12;100869.16;;;16.97;75.23
59767;BME280;46248;58.364;25.582;2022-07-22T01:04:35;100877.75;;;17.01;74.54
59767;BME280;46248;58.364;25.582;2022-07-22T01:07:59;100871.81;;;16.97;75.64
59767;BME280;46248;58.364;25.582;2022-07-22T01:11:21;100862.75;;;16.88;77.83
59767;BME280;46248;58.364;25.582;2022-07-22T01:14:44;100870.78;;;16.87;79.95
59767;BME280;46248;58.364;25.582;2022-07-22T01:18:06;100863.41;;;16.79;78.68
59767;BME280;46248;58.364;25.582;2022-07-22T01:21:30;100873.03;;;16.80;78.18
59767;BME280;46248;58.364;25.582;2022-07-22T01:24:52;100861.84;;;16.77;78.81
59767;BME280;46248;58.364;25.582;2022-07-22T01:28:15;100866.25;;;16.76;80.75
59767;BME280;46248;58.364;25.582;2022-07-22T01:31:37;100867.53;;;16.70;80.32
59767;BME280;46248;58.364;25.582;2022-07-22T01:34:59;100869.44;;;16.68;80.68
59767;BME280;46248;58.364;25.582;2022-07-22T01:38:22;100861.59;;;16.67;81.52
59767;BME280;46248;58.364;25.582;2022-07-22T01:41:44;100861.81;;;16.64;81.59
59767;BME280;46248;58.364;25.582;2022-07-22T01:45:07;100860.25;;;16.61;82.01
59767;BME280;46248;58.364;25.582;2022-07-22T01:48:30;100860.13;;;16.63;81.29
59767;BME280;46248;58.364;25.582;2022-07-22T01:51:52;100860.34;;;16.60;81.14
59767;BME280;46248;58.364;25.582;2022-07-22T01:55:16;100867.31;;;16.61;82.17
59767;BME280;46248;58.364;25.582;2022-07-22T01:58:38;100852.75;;;16.55;81.83
59767;BME280;46248;58.364;25.582;2022-07-22T02:02:00;100848.31;;;16.56;82.15
59767;BME280;46248;58.364;25.582;2022-07-22T02:05:22;100846.81;;;16.52;82.36
59767;BME280;46248;58.364;25.582;2022-07-22T02:08:44;100861.84;;;16.51;83.02
59767;BME280;46248;58.364;25.582;2022-07-22T02:12:08;100851.09;;;16.41;82.74
59767;BME280;46248;58.364;25.582;2022-07-22T02:15:30;100850.13;;;16.42;82.33
59767;BME280;46248;58.364;25.582;2022-07-22T02:18:53;100856.78;;;16.48;81.42
59767;BME280;46248;58.364;25.582;2022-07-22T02:22:15;100852.34;;;16.48;80.97
59767;BME280;46248;58.364;25.582;2022-07-22T02:25:38;100855.50;;;16.54;80.96
59767;BME280;46248;58.364;25.582;2022-07-22T02:29:02;100852.63;;;16.57;80.81
59767;BME280;46248;58.364;25.582;2022-07-22T02:32:24;100848.31;;;16.56;80.28
59767;BME280;46248;58.364;25.582;2022-07-22T02:35:46;100851.69;;;16.58;80.81
59767;BME280;46248;58.364;25.582;2022-07-22T02:39:08;100859.50;;;16.59;81.62
59767;BME280;46248;58.364;25.582;2022-07-22T02:42:30;100843.75;;;16.58;81.91
59767;BME280;46248;58.364;25.582;2022-07-22T02:45:53;100830.97;;;16.52;81.85
59767;BME280;46248;58.364;25.582;2022-07-22T02:49:16;100848.91;;;16.72;81.77
59767;BME280;46248;58.364;25.582;2022-07-22T02:52:38;100849.34;;;16.79;81.75
59767;BME280;46248;58.364;25.582;2022-07-22T02:55:59;100847.22;;;16.84;81.86
59767;BME280;46248;58.364;25.582;2022-07-22T02:59:21;100848.56;;;16.89;81.95
59767;BME280;46248;58.364;25.582;2022-07-22T03:02:45;100848.88;;;16.98;82.15
59767;BME280;46248;58.364;25.582;2022-07-22T03:06:07;100850.94;;;17.05;81.90
59767;BME280;46248;58.364;25.582;2022-07-22T03:09:29;100851.00;;;17.16;81.76
59767;BME280;46248;58.364;25.582;2022-07-22T03:12:51;100850.19;;;17.27;81.43
59767;BME280;46248;58.364;25.582;2022-07-22T03:16:12;100841.78;;;17.33;81.67
59767;BME280;46248;58.364;25.582;2022-07-22T03:19:36;100848.13;;;17.55;81.42
59767;BME280;46248;58.364;25.582;2022-07-22T03:22:58;100848.44;;;17.74;80.91
59767;BME280;46248;58.364;25.582;2022-07-22T03:26:20;100842.59;;;17.93;80.13
59767;BME280;46248;58.364;25.582;2022-07-22T03:29:42;100806.84;;;17.99;79.44
59767;BME280;46248;58.364;25.582;2022-07-22T03:33:04;100849.75;;;18.38;79.04
59767;BME280;46248;58.364;25.582;2022-07-22T03:36:28;100857.47;;;18.52;78.44
59767;BME280;46248;58.364;25.582;2022-07-22T03:39:50;100831.78;;;18.52;77.74
59767;BME280;46248;58.364;25.582;2022-07-22T03:43:12;100859.97;;;18.87;77.58
59767;BME280;46248;58.364;25.582;2022-07-22T03:46:34;100862.69;;;19.08;76.37
59767;BME280;46248;58.364;25.582;2022-07-22T03:49:56;100860.94;;;19.30;75.63
59767;BME280;46248;58.364;25.582;2022-07-22T03:53:20;100863.25;;;19.55;74.78
59767;BME280;46248;58.364;25.582;2022-07-22T03:56:42;100866.13;;;19.84;74.07
59767;BME280;46248;58.364;25.582;2022-07-22T04:00:05;100867.63;;;19.98;72.61
59767;BME280;46248;58.364;25.582;2022-07-22T04:03:27;100864.28;;;20.06;71.50
59767;BME280;46248;58.364;25.582;2022-07-22T04:06:49;100876.50;;;20.08;71.69
59767;BME280;46248;58.364;25.582;2022-07-22T04:10:13;100876.41;;;20.20;71.34
59767;BME280;46248;58.364;25.582;2022-07-22T04:13:35;100878.44;;;20.27;71.01
59767;BME280;46248;58.364;25.582;2022-07-22T04:16:57;100871.31;;;20.38;70.20
59767;BME280;46248;58.364;25.582;2022-07-22T04:20:19;100871.34;;;20.47;69.75
59767;BME280;46248;58.364;25.582;2022-07-22T04:23:40;100880.13;;;20.59;68.96
59767;BME280;46248;58.364;25.582;2022-07-22T04:27:04;100884.25;;;20.73;68.67
59767;BME280;46248;58.364;25.582;2022-07-22T04:30:26;100871.25;;;20.89;66.85
59767;BME280;46248;58.364;25.582;2022-07-22T04:33:48;100873.38;;;21.05;66.78
59767;BME280;46248;58.364;25.582;2022-07-22T04:37:10;100866.53;;;21.22;65.76
59767;BME280;46248;58.364;25.582;2022-07-22T04:40:32;100872.31;;;21.46;65.90
59767;BME280;46248;58.364;25.582;2022-07-22T04:43:56;100871.88;;;21.70;65.83
59767;BME280;46248;58.364;25.582;2022-07-22T04:47:17;100858.78;;;21.96;64.78
59767;BME280;46248;58.364;25.582;2022-07-22T04:50:39;100873.84;;;22.35;63.91
59767;BME280;46248;58.364;25.582;2022-07-22T04:54:01;100873.88;;;22.62;62.71
59767;BME280;46248;58.364;25.582;2022-07-22T04:57:26;100871.78;;;22.84;61.55
59767;BME280;46248;58.364;25.582;2022-07-22T05:00:49;100869.38;;;22.91;61.11
59767;BME280;46248;58.364;25.582;2022-07-22T05:04:12;100856.16;;;22.89;61.10
59767;BME280;46248;58.364;25.582;2022-07-22T05:07:34;100865.53;;;23.03;60.55
59767;BME280;46248;58.364;25.582;2022-07-22T05:10:56;100867.66;;;23.17;60.71
59767;BME280;46248;58.364;25.582;2022-07-22T05:14:18;100869.91;;;23.40;59.68
59767;BME280;46248;58.364;25.582;2022-07-22T05:17:42;100862.53;;;23.60;58.96
59767;BME280;46248;58.364;25.582;2022-07-22T05:21:04;100868.50;;;23.71;59.29
59767;BME280;46248;58.364;25.582;2022-07-22T05:24:27;100854.72;;;23.84;58.80
59767;BME280;46248;58.364;25.582;2022-07-22T05:27:50;100862.38;;;24.05;57.88
59767;BME280;46248;58.364;25.582;2022-07-22T05:31:13;100856.75;;;24.16;57.57
59767;BME280;46248;58.364;25.582;2022-07-22T05:34:36;100850.47;;;24.26;57.19
59767;BME280;46248;58.364;25.582;2022-07-22T05:37:58;100855.53;;;24.37;57.02
59767;BME280;46248;58.364;25.582;2022-07-22T05:41:20;100855.44;;;24.47;55.55
59767;BME280;46248;58.364;25.582;2022-07-22T05:44:43;100857.78;;;24.50;56.38
59767;BME280;46248;58.364;25.582;2022-07-22T05:48:05;100836.56;;;24.48;56.58
59767;BME280;46248;58.364;25.582;2022-07-22T05:51:29;100859.03;;;24.72;56.21
59767;BME280;46248;58.364;25.582;2022-07-22T05:54:51;100861.78;;;24.88;55.92
59767;BME280;46248;58.364;25.582;2022-07-22T05:58:13;100850.13;;;25.05;55.22
59767;BME280;46248;58.364;25.582;2022-07-22T06:01:35;100852.97;;;25.20;55.00
59767;BME280;46248;58.364;25.582;2022-07-22T06:04:58;100842.63;;;25.25;54.86
59767;BME280;46248;58.364;25.582;2022-07-22T06:08:24;100850.50;;;25.27;54.14
59767;BME280;46248;58.364;25.582;2022-07-22T06:11:46;100842.47;;;25.27;54.08
59767;BME280;46248;58.364;25.582;2022-07-22T06:15:08;100833.72;;;25.41;54.79
59767;BME280;46248;58.364;25.582;2022-07-22T06:18:30;100839.75;;;25.59;54.08
59767;BME280;46248;58.364;25.582;2022-07-22T06:21:52;100834.75;;;25.73;53.48
59767;BME280;46248;58.364;25.582;2022-07-22T06:25:16;100835.22;;;25.76;53.56
59767;BME280;46248;58.364;25.582;2022-07-22T06:28:58;100826.00;;;25.79;52.93
59767;BME280;46248;58.364;25.582;2022-07-22T06:32:20;100831.06;;;25.82;53.09
59767;BME280;46248;58.364;25.582;2022-07-22T06:35:42;100846.81;;;25.93;52.83
59767;BME280;46248;58.364;25.582;2022-07-22T06:39:04;100838.72;;;26.01;53.22
59767;BME280;46248;58.364;25.582;2022-07-22T06:42:27;100846.63;;;26.03;52.17
59767;BME280;46248;58.364;25.582;2022-07-22T06:45:49;100845.59;;;26.12;53.02
59767;BME280;46248;58.364;25.582;2022-07-22T06:49:12;100855.28;;;26.30;52.56
59767;BME280;46248;58.364;25.582;2022-07-22T06:52:38;100843.78;;;26.44;52.24
59767;BME280;46248;58.364;25.582;2022-07-22T06:56:00;100850.66;;;26.46;52.34
59767;BME280;46248;58.364;25.582;2022-07-22T06:59:28;100830.72;;;26.41;51.94
59767;BME280;46248;58.364;25.582;2022-07-22T07:02:50;100834.22;;;26.49;52.39
59767;BME280;46248;58.364;25.582;2022-07-22T07:06:32;100847.72;;;26.72;52.56
59767;BME280;46248;58.364;25.582;2022-07-22T07:09:54;100845.53;;;26.76;51.71
59767;BME280;46248;58.364;25.582;2022-07-22T07:13:15;100842.78;;;26.84;52.35
59767;BME280;46248;58.364;25.582;2022-07-22T07:16:39;100837.66;;;26.98;51.32
59767;BME280;46248;58.364;25.582;2022-07-22T07:20:01;100850.97;;;27.22;50.83
59767;BME280;46248;58.364;25.582;2022-07-22T07:23:23;100836.28;;;27.33;50.50
59767;BME280;46248;58.364;25.582;2022-07-22T07:26:45;100809.34;;;27.18;49.81
59767;BME280;46248;58.364;25.582;2022-07-22T07:30:08;100839.13;;;27.31;49.96
59767;BME280;46248;58.364;25.582;2022-07-22T07:33:32;100836.06;;;27.34;49.86
59767;BME280;46248;58.364;25.582;2022-07-22T07:36:54;100831.94;;;27.47;49.03
59767;BME280;46248;58.364;25.582;2022-07-22T07:40:18;100834.25;;;27.50;49.02
59767;BME280;46248;58.364;25.582;2022-07-22T07:43:40;100829.94;;;27.63;48.41
59767;BME280;46248;58.364;25.582;2022-07-22T07:47:02;100833.28;;;27.66;48.31
59767;BME280;46248;58.364;25.582;2022-07-22T07:50:25;100832.16;;;27.60;46.02
59767;BME280;46248;58.364;25.582;2022-07-22T07:53:47;100837.63;;;27.52;47.21
59767;BME280;46248;58.364;25.582;2022-07-22T07:57:10;100834.88;;;27.60;46.87
59767;BME280;46248;58.364;25.582;2022-07-22T08:00:33;100833.53;;;27.79;46.88
59767;BME280;46248;58.364;25.582;2022-07-22T08:03:55;100835.22;;;27.95;46.50
59767;BME280;46248;58.364;25.582;2022-07-22T08:07:38;100827.97;;;28.10;45.77
59767;BME280;46248;58.364;25.582;2022-07-22T08:11:01;100825.28;;;28.10;45.73
59767;BME280;46248;58.364;25.582;2022-07-22T08:14:23;100818.59;;;28.06;46.60
59767;BME280;46248;58.364;25.582;2022-07-22T08:17:45;100812.47;;;28.12;45.84
59767;BME280;46248;58.364;25.582;2022-07-22T08:21:07;100810.06;;;28.17;46.41
59767;BME280;46248;58.364;25.582;2022-07-22T08:24:31;100815.16;;;28.27;46.29
59767;BME280;46248;58.364;25.582;2022-07-22T08:27:53;100820.91;;;28.39;46.61
59767;BME280;46248;58.364;25.582;2022-07-22T08:31:15;100816.47;;;28.46;45.73
59767;BME280;46248;58.364;25.582;2022-07-22T08:34:37;100826.47;;;28.52;45.38
59767;BME280;46248;58.364;25.582;2022-07-22T08:37:59;100822.13;;;28.51;45.37
59767;BME280;46248;58.364;25.582;2022-07-22T08:41:23;100813.50;;;28.41;45.15
59767;BME280;46248;58.364;25.582;2022-07-22T08:44:47;100816.00;;;28.27;45.79
59767;BME280;46248;58.364;25.582;2022-07-22T08:48:09;100813.31;;;28.42;45.95
59767;BME280;46248;58.364;25.582;2022-07-22T08:51:31;100811.81;;;28.54;45.22
59767;BME280;46248;58.364;25.582;2022-07-22T08:54:54;100812.16;;;28.66;44.79
59767;BME280;46248;58.364;25.582;2022-07-22T08:58:17;100812.22;;;28.73;45.07
59767;BME280;46248;58.364;25.582;2022-07-22T09:02:00;100817.16;;;28.69;44.09
59767;BME280;46248;58.364;25.582;2022-07-22T09:05:22;100820.22;;;28.66;45.48
59767;BME280;46248;58.364;25.582;2022-07-22T09:09:05;100822.16;;;28.72;45.77
59767;BME280;46248;58.364;25.582;2022-07-22T09:12:33;100824.66;;;28.74;45.33
59767;BME280;46248;58.364;25.582;2022-07-22T09:15:56;100816.84;;;28.79;45.04
59767;BME280;46248;58.364;25.582;2022-07-22T09:19:31;100817.91;;;28.63;45.21
59767;BME280;46248;58.364;25.582;2022-07-22T09:22:53;100825.31;;;28.76;46.08
59767;BME280;46248;58.364;25.582;2022-07-22T09:26:30;100822.19;;;28.94;45.93
59767;BME280;46248;58.364;25.582;2022-07-22T09:29:52;100820.69;;;29.06;44.87
59767;BME280;46248;58.364;25.582;2022-07-22T09:33:19;100831.97;;;29.16;44.86
59767;BME280;46248;58.364;25.582;2022-07-22T09:36:54;100808.31;;;29.12;44.54
59767;BME280;46248;58.364;25.582;2022-07-22T09:40:17;100828.50;;;29.22;45.74
59767;BME280;46248;58.364;25.582;2022-07-22T09:43:40;100825.25;;;29.27;45.42
59767;BME280;46248;58.364;25.582;2022-07-22T09:47:02;100827.28;;;29.25;44.60
59767;BME280;46248;58.364;25.582;2022-07-22T09:50:26;100832.13;;;29.30;45.71
59767;BME280;46248;58.364;25.582;2022-07-22T09:53:49;100828.44;;;29.37;44.97
59767;BME280;46248;58.364;25.582;2022-07-22T09:57:12;100826.31;;;29.33;45.30
59767;BME280;46248;58.364;25.582;2022-07-22T10:00:34;100832.34;;;29.35;45.75
59767;BME280;46248;58.364;25.582;2022-07-22T10:03:57;100821.16;;;29.38;44.83
59767;BME280;46248;58.364;25.582;2022-07-22T10:07:23;100834.72;;;29.44;44.82
59767;BME280;46248;58.364;25.582;2022-07-22T10:10:47;100831.78;;;29.39;45.53
59767;BME280;46248;58.364;25.582;2022-07-22T10:14:10;100829.25;;;29.38;45.17
59767;BME280;46248;58.364;25.582;2022-07-22T10:17:42;100838.50;;;29.50;45.59
59767;BME280;46248;58.364;25.582;2022-07-22T10:21:06;100808.75;;;29.43;44.87
59767;BME280;46248;58.364;25.582;2022-07-22T10:24:29;100838.44;;;29.65;46.34
59767;BME280;46248;58.364;25.582;2022-07-22T10:27:54;100834.28;;;29.62;45.56
59767;BME280;46248;58.364;25.582;2022-07-22T10:31:18;100828.88;;;29.62;45.90
59767;BME280;46248;58.364;25.582;2022-07-22T10:34:41;100828.94;;;29.69;46.01
59767;BME280;46248;58.364;25.582;2022-07-22T10:38:08;100836.03;;;29.77;45.42
59767;BME280;46248;58.364;25.582;2022-07-22T10:41:33;100836.47;;;29.80;45.16
59767;BME280;46248;58.364;25.582;2022-07-22T10:44:56;100830.50;;;29.85;45.48
59767;BME280;46248;58.364;25.582;2022-07-22T10:48:21;100831.81;;;29.96;46.00
59767;BME280;46248;58.364;25.582;2022-07-22T10:52:10;100830.50;;;29.85;43.94
59767;BME280;46248;58.364;25.582;2022-07-22T10:55:38;100841.59;;;29.69;45.86
59767;BME280;46248;58.364;25.582;2022-07-22T10:59:10;100836.31;;;29.60;44.25
59767;BME280;46248;58.364;25.582;2022-07-22T11:02:33;100829.19;;;29.53;44.69
59767;BME280;46248;58.364;25.582;2022-07-22T11:05:55;100834.38;;;29.54;45.62
59767;BME280;46248;58.364;25.582;2022-07-22T11:09:21;100834.44;;;29.61;44.79
59767;BME280;46248;58.364;25.582;2022-07-22T11:12:48;100829.50;;;29.64;46.02
59767;BME280;46248;58.364;25.582;2022-07-22T11:16:16;100826.34;;;29.61;45.02
59767;BME280;46248;58.364;25.582;2022-07-22T11:19:39;100821.41;;;29.64;44.83
59767;BME280;46248;58.364;25.582;2022-07-22T11:23:01;100829.50;;;29.64;46.25
59767;BME280;46248;58.364;25.582;2022-07-22T11:26:33;100815.63;;;29.67;46.00
59767;BME280;46248;58.364;25.582;2022-07-22T11:29:56;100817.75;;;29.72;46.08
59767;BME280;46248;58.364;25.582;2022-07-22T11:33:19;100812.38;;;29.79;45.59
59767;BME280;46248;58.364;25.582;2022-07-22T11:36:43;100822.19;;;29.86;45.14
59767;BME280;46248;58.364;25.582;2022-07-22T11:40:08;100808.28;;;29.89;45.03
59767;BME280;46248;58.364;25.582;2022-07-22T11:43:37;100805.41;;;29.91;46.09
59767;BME280;46248;58.364;25.582;2022-07-22T11:47:00;100798.63;;;30.02;45.44
59767;BME280;46248;58.364;25.582;2022-07-22T11:50:30;100794.91;;;30.09;45.60
59767;BME280;46248;58.364;25.582;2022-07-22T11:53:52;100794.31;;;30.14;46.12
59767;BME280;46248;58.364;25.582;2022-07-22T11:57:16;100786.06;;;30.22;44.73
59767;BME280;46248;58.364;25.582;2022-07-22T12:00:38;100787.34;;;30.26;45.26
59767;BME280;46248;58.364;25.582;2022-07-22T12:04:03;100787.53;;;30.25;45.15
59767;BME280;46248;58.364;25.582;2022-07-22T12:07:27;100776.66;;;30.11;45.29
59767;BME280;46248;58.364;25.582;2022-07-22T12:10:50;100772.09;;;30.19;45.64
59767;BME280;46248;58.364;25.582;2022-07-22T12:14:13;100784.34;;;30.15;46.19
59767;BME280;46248;58.364;25.582;2022-07-22T12:17:36;100753.75;;;30.07;45.66
59767;BME280;46248;58.364;25.582;2022-07-22T12:20:57;100770.50;;;30.24;44.95
59767;BME280;46248;58.364;25.582;2022-07-22T12:24:29;100773.22;;;30.31;43.76
59767;BME280;46248;58.364;25.582;2022-07-22T12:28:00;100772.09;;;30.19;45.07
59767;BME280;46248;58.364;25.582;2022-07-22T12:31:22;100774.44;;;30.22;45.59
59767;BME280;46248;58.364;25.582;2022-07-22T12:34:46;100767.53;;;30.19;45.59
59767;BME280;46248;58.364;25.582;2022-07-22T12:38:09;100774.03;;;30.25;45.34
59767;BME280;46248;58.364;25.582;2022-07-22T12:41:33;100765.50;;;30.21;44.93
59767;BME280;46248;58.364;25.582;2022-07-22T12:45:02;100764.06;;;30.25;45.01
59767;BME280;46248;58.364;25.582;2022-07-22T12:48:27;100760.94;;;30.28;44.92
59767;BME280;46248;58.364;25.582;2022-07-22T12:52:11;100761.59;;;30.37;44.94
59767;BME280;46248;58.364;25.582;2022-07-22T12:55:35;100754.31;;;30.38;44.61
59767;BME280;46248;58.364;25.582;2022-07-22T12:58:58;100746.63;;;30.34;44.72
59767;BME280;46248;58.364;25.582;2022-07-22T13:02:20;100749.13;;;30.36;45.21
59767;BME280;46248;58.364;25.582;2022-07-22T13:05:46;100743.72;;;30.29;44.17
59767;BME280;46248;58.364;25.582;2022-07-22T13:09:08;100747.66;;;30.27;45.50
59767;BME280;46248;58.364;25.582;2022-07-22T13:12:37;100749.38;;;30.41;44.78
59767;BME280;46248;58.364;25.582;2022-07-22T13:16:01;100726.69;;;30.29;44.34
59767;BME280;46248;58.364;25.582;2022-07-22T13:19:23;100724.75;;;30.23;45.00
59767;BME280;46248;58.364;25.582;2022-07-22T13:22:46;100735.63;;;30.29;44.80
59767;BME280;46248;58.364;25.582;2022-07-22T13:26:08;100731.06;;;30.37;45.00
59767;BME280;46248;58.364;25.582;2022-07-22T13:29:30;100735.25;;;30.46;45.01
59767;BME280;46248;58.364;25.582;2022-07-22T13:32:53;100731.31;;;30.55;44.47
59767;BME280;46248;58.364;25.582;2022-07-22T13:36:15;100721.53;;;30.47;45.36
59767;BME280;46248;58.364;25.582;2022-07-22T13:39:37;100726.31;;;30.52;44.70
59767;BME280;46248;58.364;25.582;2022-07-22T13:43:00;100724.66;;;30.57;44.91
59767;BME280;46248;58.364;25.582;2022-07-22T13:46:22;100720.50;;;30.62;44.62
59767;BME280;46248;58.364;25.582;2022-07-22T13:49:45;100719.03;;;30.59;44.26
59767;BME280;46248;58.364;25.582;2022-07-22T13:53:10;100723.84;;;30.57;44.47
59767;BME280;46248;58.364;25.582;2022-07-22T13:56:32;100724.44;;;30.52;44.48
59767;BME280;46248;58.364;25.582;2022-07-22T13:59:54;100721.97;;;30.57;44.97
59767;BME280;46248;58.364;25.582;2022-07-22T14:03:17;100719.91;;;30.66;44.75
59767;BME280;46248;58.364;25.582;2022-07-22T14:06:40;100716.16;;;30.67;45.23
59767;BME280;46248;58.364;25.582;2022-07-22T14:10:04;100715.50;;;30.65;44.68
59767;BME280;46248;58.364;25.582;2022-07-22T14:13:26;100720.97;;;30.72;45.04
59767;BME280;46248;58.364;25.582;2022-07-22T14:16:48;100712.25;;;30.83;44.07
59767;BME280;46248;58.364;25.582;2022-07-22T14:20:20;100717.03;;;30.88;44.32
59767;BME280;46248;58.364;25.582;2022-07-22T14:23:46;100713.72;;;30.86;44.43
59767;BME280;46248;58.364;25.582;2022-07-22T14:27:08;100707.06;;;30.88;44.34
59767;BME280;46248;58.364;25.582;2022-07-22T14:30:30;100711.00;;;30.92;43.72
59767;BME280;46248;58.364;25.582;2022-07-22T14:33:54;100704.97;;;30.97;44.11
59767;BME280;46248;58.364;25.582;2022-07-22T14:37:17;100707.47;;;30.98;44.21
59767;BME280;46248;58.364;25.582;2022-07-22T14:40:47;100704.97;;;30.97;44.07
59767;BME280;46248;58.364;25.582;2022-07-22T14:44:09;100703.09;;;31.04;44.27
59767;BME280;46248;58.364;25.582;2022-07-22T14:47:31;100695.84;;;31.11;44.24
59767;BME280;46248;58.364;25.582;2022-07-22T14:50:53;100690.00;;;31.14;44.00
59767;BME280;46248;58.364;25.582;2022-07-22T14:54:15;100683.78;;;31.14;43.48
59767;BME280;46248;58.364;25.582;2022-07-22T14:57:38;100690.84;;;31.15;43.24
59767;BME280;46248;58.364;25.582;2022-07-22T15:01:00;100679.59;;;31.11;43.66
59767;BME280;46248;58.364;25.582;2022-07-22T15:04:22;100680.03;;;31.08;43.32
59767;BME280;46248;58.364;25.582;2022-07-22T15:07:44;100683.97;;;31.12;43.47
59767;BME280;46248;58.364;25.582;2022-07-22T15:11:07;100680.00;;;31.15;44.09
59767;BME280;46248;58.364;25.582;2022-07-22T15:14:30;100686.88;;;31.17;44.22
59767;BME280;46248;58.364;25.582;2022-07-22T15:17:52;100681.91;;;31.08;44.19
59767;BME280;46248;58.364;25.582;2022-07-22T15:21:14;100682.31;;;30.98;44.93
59767;BME280;46248;58.364;25.582;2022-07-22T15:24:37;100679.81;;;30.96;44.64
59767;BME280;46248;58.364;25.582;2022-07-22T15:27:58;100686.25;;;30.95;43.92
59767;BME280;46248;58.364;25.582;2022-07-22T15:31:42;100675.03;;;30.85;44.43
59767;BME280;46248;58.364;25.582;2022-07-22T15:35:06;100678.53;;;30.72;44.51
59767;BME280;46248;58.364;25.582;2022-07-22T15:38:28;100662.94;;;30.68;44.60
59767;BME280;46248;58.364;25.582;2022-07-22T15:41:51;100670.25;;;30.80;44.57
59767;BME280;46248;58.364;25.582;2022-07-22T15:45:13;100670.47;;;30.79;45.18
59767;BME280;46248;58.364;25.582;2022-07-22T15:48:36;100674.63;;;30.88;45.33
59767;BME280;46248;58.364;25.582;2022-07-22T15:52:00;100666.72;;;30.87;45.21
59767;BME280;46248;58.364;25.582;2022-07-22T15:55:23;100680.88;;;31.02;43.99
59767;BME280;46248;58.364;25.582;2022-07-22T15:58:45;100660.84;;;31.16;44.07
59767;BME280;46248;58.364;25.582;2022-07-22T16:02:44;100673.63;;;31.74;43.31
59767;BME280;46248;58.364;25.582;2022-07-22T16:06:08;100664.13;;;32.10;42.35
59767;BME280;46248;58.364;25.582;2022-07-22T16:09:30;100669.00;;;31.94;42.23
59767;BME280;46248;58.364;25.582;2022-07-22T16:12:52;100675.09;;;31.90;42.48
59767;BME280;46248;58.364;25.582;2022-07-22T16:16:14;100659.22;;;31.87;43.06
59767;BME280;46248;58.364;25.582;2022-07-22T16:19:35;100661.53;;;31.90;42.42
59767;BME280;46248;58.364;25.582;2022-07-22T16:22:59;100661.97;;;31.80;42.35
59767;BME280;46248;58.364;25.582;2022-07-22T16:26:21;100663.19;;;31.84;42.60
59767;BME280;46248;58.364;25.582;2022-07-22T16:29:44;100660.53;;;31.71;43.01
59767;BME280;46248;58.364;25.582;2022-07-22T16:33:05;100658.41;;;31.80;42.35
59767;BME280;46248;58.364;25.582;2022-07-22T16:36:27;100655.09;;;31.71;42.83
59767;BME280;46248;58.364;25.582;2022-07-22T16:39:52;100648.03;;;31.70;42.46
59767;BME280;46248;58.364;25.582;2022-07-22T16:43:16;100644.72;;;31.75;43.19
59767;BME280;46248;58.364;25.582;2022-07-22T16:46:38;100643.56;;;32.02;43.16
59767;BME280;46248;58.364;25.582;2022-07-22T16:50:03;100639.19;;;32.33;42.64
59767;BME280;46248;58.364;25.582;2022-07-22T16:53:25;100641.41;;;32.49;42.13
59767;BME280;46248;58.364;25.582;2022-07-22T16:56:48;100640.25;;;32.64;42.01
59767;BME280;46248;58.364;25.582;2022-07-22T17:00:11;100638.88;;;32.54;41.52
59767;BME280;46248;58.364;25.582;2022-07-22T17:03:33;100632.47;;;32.42;42.07
59767;BME280;46248;58.364;25.582;2022-07-22T17:06:55;100617.78;;;32.25;42.09
59767;BME280;46248;58.364;25.582;2022-07-22T17:10:17;100641.47;;;32.36;42.10
59767;BME280;46248;58.364;25.582;2022-07-22T17:13:40;100638.56;;;32.31;41.85
59767;BME280;46248;58.364;25.582;2022-07-22T17:17:05;100626.22;;;32.10;42.46
59767;BME280;46248;58.364;25.582;2022-07-22T17:20:27;100626.59;;;32.13;42.71
59767;BME280;46248;58.364;25.582;2022-07-22T17:23:49;100630.56;;;32.17;42.21
59767;BME280;46248;58.364;25.582;2022-07-22T17:27:13;100631.00;;;32.14;42.79
59767;BME280;46248;58.364;25.582;2022-07-22T17:30:37;100633.47;;;32.16;42.66